sensor_id;sensor_type;location;lat;lon;timestamp;pressure;altitude;pressure_sealevel;temperature;humidity
51313;BME280;37397;53.226;10.400;2023-07-31T00:01:56;100490.47;;;18.18;64.74
51313;BME280;37397;53.226;10.400;2023-07-31T00:04:22;100500.69;;;18.19;64.94
51313;BME280;37397;53.226;10.400;2023-07-31T00:06:49;100492.34;;;18.15;64.93
51313;BME280;37397;53.226;10.400;2023-07-31T00:09:15;100489.69;;;18.17;65.29
51313;BME280;37397;53.226;10.400;2023-07-31T00:11:42;100494.69;;;18.17;65.00
51313;BME280;37397;53.226;10.400;2023-07-31T00:14:08;100499.69;;;18.16;65.10
51313;BME280;37397;53.226;10.400;2023-07-31T00:16:35;100481.56;;;18.16;65.22
51313;BME280;37397;53.226;10.400;2023-07-31T00:19:02;100485.00;;;18.14;65.26
51313;BME280;37397;53.226;10.400;2023-07-31T00:21:28;100477.91;;;18.15;65.06
51313;BME280;37397;53.226;10.400;2023-07-31T00:23:55;100479.22;;;18.14;65.37
51313;BME280;37397;53.226;10.400;2023-07-31T00:26:21;100475.00;;;18.15;65.16
51313;BME280;37397;53.226;10.400;2023-07-31T00:28:48;100474.56;;;18.11;65.26
51313;BME280;37397;53.226;10.400;2023-07-31T00:31:14;100481.34;;;18.14;65.51
51313;BME280;37397;53.226;10.400;2023-07-31T00:33:41;100471.91;;;18.13;65.42
51313;BME280;37397;53.226;10.400;2023-07-31T00:36:07;100466.13;;;18.13;65.44
51313;BME280;37397;53.226;10.400;2023-07-31T00:38:34;100461.66;;;18.12;65.37
51313;BME280;37397;53.226;10.400;2023-07-31T00:41:00;100460.34;;;18.13;65.34
51313;BME280;37397;53.226;10.400;2023-07-31T00:43:27;100445.91;;;18.13;65.50
51313;BME280;37397;53.226;10.400;2023-07-31T00:45:54;100447.22;;;18.12;65.30
51313;BME280;37397;53.226;10.400;2023-07-31T00:48:21;100448.56;;;18.11;65.45
51313;BME280;37397;53.226;10.400;2023-07-31T00:50:47;100447.22;;;18.12;65.33
51313;BME280;37397;53.226;10.400;2023-07-31T00:53:14;100446.44;;;18.12;65.46
51313;BME280;37397;53.226;10.400;2023-07-31T00:55:41;100439.91;;;18.11;65.56
51313;BME280;37397;53.226;10.400;2023-07-31T00:58:08;100445.69;;;18.11;65.39
51313;BME280;37397;53.226;10.400;2023-07-31T01:00:37;100442.78;;;18.11;65.39
51313;BME280;37397;53.226;10.400;2023-07-31T01:03:04;100436.75;;;18.09;65.49
51313;BME280;37397;53.226;10.400;2023-07-31T01:05:55;100433.88;;;18.09;65.75
51313;BME280;37397;53.226;10.400;2023-07-31T01:08:41;100442.53;;;18.09;65.81
51313;BME280;37397;53.226;10.400;2023-07-31T01:11:15;100436.75;;;18.09;65.76
51313;BME280;37397;53.226;10.400;2023-07-31T01:13:44;100430.22;;;18.09;65.58
51313;BME280;37397;53.226;10.400;2023-07-31T01:16:12;100422.09;;;18.07;65.96
51313;BME280;37397;53.226;10.400;2023-07-31T01:18:38;100424.44;;;18.09;66.02
51313;BME280;37397;53.226;10.400;2023-07-31T01:21:22;100422.09;;;18.07;65.95
51313;BME280;37397;53.226;10.400;2023-07-31T01:27:01;100418.44;;;18.07;66.19
51313;BME280;37397;53.226;10.400;2023-07-31T01:29:38;100425.28;;;18.03;66.21
51313;BME280;37397;53.226;10.400;2023-07-31T01:32:10;100420.28;;;18.04;66.06
51313;BME280;37397;53.226;10.400;2023-07-31T01:34:37;100418.97;;;18.05;65.94
51313;BME280;37397;53.226;10.400;2023-07-31T01:37:05;100414.75;;;18.06;66.05
51313;BME280;37397;53.226;10.400;2023-07-31T01:39:31;100411.84;;;18.06;66.02
51313;BME280;37397;53.226;10.400;2023-07-31T01:41:58;100410.53;;;18.07;66.10
51313;BME280;37397;53.226;10.400;2023-07-31T01:44:24;100412.13;;;18.08;66.28
51313;BME280;37397;53.226;10.400;2023-07-31T01:46:51;100411.31;;;18.08;66.16
51313;BME280;37397;53.226;10.400;2023-07-31T01:49:17;100399.00;;;18.07;66.24
51313;BME280;37397;53.226;10.400;2023-07-31T01:51:44;100400.56;;;18.08;65.85
51313;BME280;37397;53.226;10.400;2023-07-31T01:54:10;100394.78;;;18.08;66.35
51313;BME280;37397;53.226;10.400;2023-07-31T01:56:37;100390.56;;;18.09;66.27
51313;BME280;37397;53.226;10.400;2023-07-31T01:59:04;100393.44;;;18.09;65.96
51313;BME280;37397;53.226;10.400;2023-07-31T02:01:31;100389.78;;;18.09;66.02
51313;BME280;37397;53.226;10.400;2023-07-31T02:03:57;100377.47;;;18.08;65.84
51313;BME280;37397;53.226;10.400;2023-07-31T02:06:24;100388.47;;;18.10;65.93
51313;BME280;37397;53.226;10.400;2023-07-31T02:08:51;100380.91;;;18.07;66.12
51313;BME280;37397;53.226;10.400;2023-07-31T02:11:17;100381.13;;;18.09;66.32
51313;BME280;37397;53.226;10.400;2023-07-31T02:13:44;100381.13;;;18.09;66.07
51313;BME280;37397;53.226;10.400;2023-07-31T02:16:10;100378.22;;;18.09;66.14
51313;BME280;37397;53.226;10.400;2023-07-31T02:18:37;100377.19;;;18.06;66.07
51313;BME280;37397;53.226;10.400;2023-07-31T02:21:04;100382.44;;;18.08;66.10
51313;BME280;37397;53.226;10.400;2023-07-31T02:23:31;100370.13;;;18.07;65.81
51313;BME280;37397;53.226;10.400;2023-07-31T02:25:57;100373.00;;;18.07;66.10
51313;BME280;37397;53.226;10.400;2023-07-31T02:28:24;100373.00;;;18.07;66.30
51313;BME280;37397;53.226;10.400;2023-07-31T02:30:51;100362.75;;;18.06;66.11
51313;BME280;37397;53.226;10.400;2023-07-31T02:33:18;100356.22;;;18.06;66.12
51313;BME280;37397;53.226;10.400;2023-07-31T02:35:45;100362.75;;;18.06;66.03
51313;BME280;37397;53.226;10.400;2023-07-31T02:38:12;100355.44;;;18.05;66.43
51313;BME280;37397;53.226;10.400;2023-07-31T02:40:40;100357.53;;;18.04;66.40
51313;BME280;37397;53.226;10.400;2023-07-31T02:43:08;100354.97;;;18.01;66.46
51313;BME280;37397;53.226;10.400;2023-07-31T02:45:35;100352.56;;;18.05;66.38
51313;BME280;37397;53.226;10.400;2023-07-31T02:48:02;100353.88;;;18.04;66.49
51313;BME280;37397;53.226;10.400;2023-07-31T02:50:29;100342.34;;;18.04;66.36
51313;BME280;37397;53.226;10.400;2023-07-31T02:52:56;100348.88;;;18.04;66.37
51313;BME280;37397;53.226;10.400;2023-07-31T02:55:22;100348.88;;;18.04;66.38
51313;BME280;37397;53.226;10.400;2023-07-31T02:57:49;100345.22;;;18.04;66.35
51313;BME280;37397;53.226;10.400;2023-07-31T03:00:15;100341.56;;;18.03;66.63
51313;BME280;37397;53.226;10.400;2023-07-31T03:02:42;100346.53;;;18.03;66.57
51313;BME280;37397;53.226;10.400;2023-07-31T03:05:08;100345.22;;;18.04;66.45
51313;BME280;37397;53.226;10.400;2023-07-31T03:07:35;100348.09;;;18.04;66.40
51313;BME280;37397;53.226;10.400;2023-07-31T03:10:01;100342.34;;;18.04;66.70
51313;BME280;37397;53.226;10.400;2023-07-31T03:12:28;100342.34;;;18.04;66.70
51313;BME280;37397;53.226;10.400;2023-07-31T03:14:54;100348.66;;;18.02;66.64
51313;BME280;37397;53.226;10.400;2023-07-31T03:17:21;100341.56;;;18.03;66.68
51313;BME280;37397;53.226;10.400;2023-07-31T03:19:48;100336.56;;;18.04;66.41
51313;BME280;37397;53.226;10.400;2023-07-31T03:22:14;100336.56;;;18.04;66.44
51313;BME280;37397;53.226;10.400;2023-07-31T03:24:40;100347.34;;;18.03;66.89
51313;BME280;37397;53.226;10.400;2023-07-31T03:27:07;100328.44;;;18.02;66.79
51313;BME280;37397;53.226;10.400;2023-07-31T03:29:33;100318.75;;;18.00;66.50
51313;BME280;37397;53.226;10.400;2023-07-31T03:32:00;100321.91;;;18.02;66.93
51313;BME280;37397;53.226;10.400;2023-07-31T03:34:27;100329.22;;;18.03;66.67
51313;BME280;37397;53.226;10.400;2023-07-31T03:36:53;100325.78;;;18.04;66.83
51313;BME280;37397;53.226;10.400;2023-07-31T03:39:20;100320.56;;;18.03;66.67
51313;BME280;37397;53.226;10.400;2023-07-31T03:41:46;100316.88;;;18.02;66.84
51313;BME280;37397;53.226;10.400;2023-07-31T03:44:13;100307.69;;;18.04;66.64
51313;BME280;37397;53.226;10.400;2023-07-31T03:46:39;100303.53;;;17.99;67.00
51313;BME280;37397;53.226;10.400;2023-07-31T03:49:06;100301.91;;;18.04;67.06
51313;BME280;37397;53.226;10.400;2023-07-31T03:51:33;100301.91;;;18.04;67.00
51313;BME280;37397;53.226;10.400;2023-07-31T03:54:00;100305.56;;;18.04;66.82
51313;BME280;37397;53.226;10.400;2023-07-31T03:56:27;100297.69;;;18.05;66.94
51313;BME280;37397;53.226;10.400;2023-07-31T03:58:53;100296.13;;;18.04;67.04
51313;BME280;37397;53.226;10.400;2023-07-31T04:01:20;100293.25;;;18.04;67.20
51313;BME280;37397;53.226;10.400;2023-07-31T04:03:46;100297.69;;;18.05;67.29
51313;BME280;37397;53.226;10.400;2023-07-31T04:06:13;100297.69;;;18.05;67.23
51313;BME280;37397;53.226;10.400;2023-07-31T04:08:39;100293.47;;;18.06;67.29
51313;BME280;37397;53.226;10.400;2023-07-31T04:11:06;100298.47;;;18.06;67.35
51313;BME280;37397;53.226;10.400;2023-07-31T04:13:32;100298.47;;;18.06;67.27
51313;BME280;37397;53.226;10.400;2023-07-31T04:16:00;100287.69;;;18.06;67.10
51313;BME280;37397;53.226;10.400;2023-07-31T04:18:26;100287.69;;;18.06;67.33
51313;BME280;37397;53.226;10.400;2023-07-31T04:20:53;100283.50;;;18.07;67.47
51313;BME280;37397;53.226;10.400;2023-07-31T04:23:19;100289.25;;;18.07;67.18
51313;BME280;37397;53.226;10.400;2023-07-31T04:25:46;100299.50;;;18.08;67.43
51313;BME280;37397;53.226;10.400;2023-07-31T04:28:12;100299.50;;;18.08;67.30
51313;BME280;37397;53.226;10.400;2023-07-31T04:30:39;100302.38;;;18.08;67.53
51313;BME280;37397;53.226;10.400;2023-07-31T04:33:06;100296.63;;;18.08;67.21
51313;BME280;37397;53.226;10.400;2023-07-31T04:35:32;100306.81;;;18.09;67.43
51313;BME280;37397;53.226;10.400;2023-07-31T04:37:59;100308.38;;;18.10;67.24
51313;BME280;37397;53.226;10.400;2023-07-31T04:40:25;100313.38;;;18.10;67.22
51313;BME280;37397;53.226;10.400;2023-07-31T04:42:52;100309.69;;;18.09;67.41
51313;BME280;37397;53.226;10.400;2023-07-31T04:45:18;100303.94;;;18.09;67.51
51313;BME280;37397;53.226;10.400;2023-07-31T04:47:45;100305.50;;;18.10;67.26
51313;BME280;37397;53.226;10.400;2023-07-31T04:50:11;100296.84;;;18.10;67.60
51313;BME280;37397;53.226;10.400;2023-07-31T04:52:38;100301.28;;;18.11;67.28
51313;BME280;37397;53.226;10.400;2023-07-31T04:55:04;100293.41;;;18.12;67.47
51313;BME280;37397;53.226;10.400;2023-07-31T04:57:31;100291.28;;;18.12;67.68
51313;BME280;37397;53.226;10.400;2023-07-31T04:59:58;100292.84;;;18.13;67.52
51313;BME280;37397;53.226;10.400;2023-07-31T05:02:24;100287.06;;;18.13;67.33
51313;BME280;37397;53.226;10.400;2023-07-31T05:04:51;100292.06;;;18.13;67.59
51313;BME280;37397;53.226;10.400;2023-07-31T05:07:17;100287.06;;;18.13;67.35
51313;BME280;37397;53.226;10.400;2023-07-31T05:09:44;100293.63;;;18.14;67.52
51313;BME280;37397;53.226;10.400;2023-07-31T05:12:10;100293.06;;;18.15;67.50
51313;BME280;37397;53.226;10.400;2023-07-31T05:14:37;100289.41;;;18.15;67.37
51313;BME280;37397;53.226;10.400;2023-07-31T05:17:03;100290.19;;;18.15;67.52
51313;BME280;37397;53.226;10.400;2023-07-31T05:19:30;100287.31;;;18.15;67.62
51313;BME280;37397;53.226;10.400;2023-07-31T05:21:56;100283.63;;;18.15;67.41
51313;BME280;37397;53.226;10.400;2023-07-31T05:24:23;100278.63;;;18.15;67.45
51313;BME280;37397;53.226;10.400;2023-07-31T05:26:49;100280.22;;;18.16;67.68
51313;BME280;37397;53.226;10.400;2023-07-31T05:29:16;100280.97;;;18.17;67.55
51313;BME280;37397;53.226;10.400;2023-07-31T05:31:43;100277.31;;;18.16;67.46
51313;BME280;37397;53.226;10.400;2023-07-31T05:34:09;100282.28;;;18.16;67.56
51313;BME280;37397;53.226;10.400;2023-07-31T05:36:36;100283.31;;;18.18;67.54
51313;BME280;37397;53.226;10.400;2023-07-31T05:39:03;100267.56;;;18.19;67.75
51313;BME280;37397;53.226;10.400;2023-07-31T05:41:33;100271.00;;;18.18;67.86
51313;BME280;37397;53.226;10.400;2023-07-31T05:44:01;100272.78;;;18.21;67.72
51313;BME280;37397;53.226;10.400;2023-07-31T05:46:27;100272.25;;;18.22;67.79
51313;BME280;37397;53.226;10.400;2023-07-31T05:48:54;100261.47;;;18.23;67.58
51313;BME280;37397;53.226;10.400;2023-07-31T05:51:20;100259.88;;;18.22;67.86
51313;BME280;37397;53.226;10.400;2023-07-31T05:53:47;100254.38;;;18.24;67.71
51313;BME280;37397;53.226;10.400;2023-07-31T05:56:13;100253.00;;;18.25;67.69
51313;BME280;37397;53.226;10.400;2023-07-31T05:58:40;100251.91;;;18.28;67.66
51313;BME280;37397;53.226;10.400;2023-07-31T06:01:06;100256.94;;;18.28;67.69
51313;BME280;37397;53.226;10.400;2023-07-31T06:03:33;100248.47;;;18.30;68.10
51313;BME280;37397;53.226;10.400;2023-07-31T06:06:00;100249.25;;;18.30;67.72
51313;BME280;37397;53.226;10.400;2023-07-31T06:08:26;100251.59;;;18.32;67.79
51313;BME280;37397;53.226;10.400;2023-07-31T06:10:53;100237.16;;;18.32;67.87
51313;BME280;37397;53.226;10.400;2023-07-31T06:13:19;100234.50;;;18.34;67.96
51313;BME280;37397;53.226;10.400;2023-07-31T06:15:46;100238.94;;;18.35;67.92
51313;BME280;37397;53.226;10.400;2023-07-31T06:18:12;100224.72;;;18.37;67.69
51313;BME280;37397;53.226;10.400;2023-07-31T06:20:39;100229.16;;;18.38;68.00
51313;BME280;37397;53.226;10.400;2023-07-31T06:23:06;100228.63;;;18.39;67.79
51313;BME280;37397;53.226;10.400;2023-07-31T06:25:33;100225.94;;;18.41;67.74
51313;BME280;37397;53.226;10.400;2023-07-31T06:27:59;100224.41;;;18.40;67.85
51313;BME280;37397;53.226;10.400;2023-07-31T06:30:26;100231.44;;;18.45;67.85
51313;BME280;37397;53.226;10.400;2023-07-31T06:32:53;100230.06;;;18.46;67.69
51313;BME280;37397;53.226;10.400;2023-07-31T06:35:19;100222.97;;;18.47;67.68
51313;BME280;37397;53.226;10.400;2023-07-31T06:37:46;100226.84;;;18.50;67.61
51313;BME280;37397;53.226;10.400;2023-07-31T06:40:12;100210.31;;;18.50;67.62
51313;BME280;37397;53.226;10.400;2023-07-31T06:42:39;100213.41;;;18.52;67.55
51313;BME280;37397;53.226;10.400;2023-07-31T06:45:06;100207.88;;;18.54;67.85
51313;BME280;37397;53.226;10.400;2023-07-31T06:47:33;100203.66;;;18.55;67.70
51313;BME280;37397;53.226;10.400;2023-07-31T06:49:59;100199.44;;;18.56;67.99
51313;BME280;37397;53.226;10.400;2023-07-31T06:52:26;100206.22;;;18.59;67.58
51313;BME280;37397;53.226;10.400;2023-07-31T06:55:03;100201.44;;;18.62;67.61
51313;BME280;37397;53.226;10.400;2023-07-31T06:57:30;100205.88;;;18.63;67.61
51313;BME280;37397;53.226;10.400;2023-07-31T06:59:57;100203.22;;;18.65;67.85
51313;BME280;37397;53.226;10.400;2023-07-31T07:02:23;100187.41;;;18.66;67.57
51313;BME280;37397;53.226;10.400;2023-07-31T07:04:50;100209.22;;;18.67;68.01
51313;BME280;37397;53.226;10.400;2023-07-31T07:07:17;100211.00;;;18.70;67.73
51313;BME280;37397;53.226;10.400;2023-07-31T07:09:43;100209.69;;;18.71;67.78
51313;BME280;37397;53.226;10.400;2023-07-31T07:12:09;100194.09;;;18.74;67.97
51313;BME280;37397;53.226;10.400;2023-07-31T07:14:36;100191.44;;;18.76;68.05
51313;BME280;37397;53.226;10.400;2023-07-31T07:17:03;100183.00;;;18.78;68.00
51313;BME280;37397;53.226;10.400;2023-07-31T07:19:30;100186.09;;;18.80;68.05
51313;BME280;37397;53.226;10.400;2023-07-31T07:21:57;100195.00;;;18.82;68.37
51313;BME280;37397;53.226;10.400;2023-07-31T07:24:23;100208.13;;;18.83;68.21
51313;BME280;37397;53.226;10.400;2023-07-31T07:26:50;100213.59;;;18.87;68.44
51313;BME280;37397;53.226;10.400;2023-07-31T07:29:16;100212.47;;;18.90;68.24
51313;BME280;37397;53.226;10.400;2023-07-31T07:31:43;100209.03;;;18.91;68.37
51313;BME280;37397;53.226;10.400;2023-07-31T07:34:09;100212.16;;;18.93;68.11
51313;BME280;37397;53.226;10.400;2023-07-31T07:36:36;100203.16;;;18.97;68.32
51313;BME280;37397;53.226;10.400;2023-07-31T07:39:04;100205.28;;;18.97;68.27
51313;BME280;37397;53.226;10.400;2023-07-31T07:41:31;100202.59;;;18.99;68.40
51313;BME280;37397;53.226;10.400;2023-07-31T07:43:58;100201.47;;;19.02;68.38
51313;BME280;37397;53.226;10.400;2023-07-31T07:46:24;100203.03;;;19.03;68.06
51313;BME280;37397;53.226;10.400;2023-07-31T07:48:51;100206.94;;;19.05;68.33
51313;BME280;37397;53.226;10.400;2023-07-31T07:51:17;100204.25;;;19.07;68.37
51313;BME280;37397;53.226;10.400;2023-07-31T07:53:44;100197.91;;;19.09;68.04
51313;BME280;37397;53.226;10.400;2023-07-31T07:56:10;100196.59;;;19.10;68.07
51313;BME280;37397;53.226;10.400;2023-07-31T07:58:37;100198.13;;;19.11;68.27
51313;BME280;37397;53.226;10.400;2023-07-31T08:01:03;100190.78;;;19.10;68.01
51313;BME280;37397;53.226;10.400;2023-07-31T08:03:30;100197.81;;;19.15;68.10
51313;BME280;37397;53.226;10.400;2023-07-31T08:06:00;100199.34;;;19.16;68.10
51313;BME280;37397;53.226;10.400;2023-07-31T08:08:28;100190.09;;;19.17;67.90
51313;BME280;37397;53.226;10.400;2023-07-31T08:10:54;100188.78;;;19.18;67.96
51313;BME280;37397;53.226;10.400;2023-07-31T08:13:20;100189.00;;;19.20;68.00
51313;BME280;37397;53.226;10.400;2023-07-31T08:15:47;100182.66;;;19.22;68.06
51313;BME280;37397;53.226;10.400;2023-07-31T08:18:14;100181.31;;;19.23;67.89
51313;BME280;37397;53.226;10.400;2023-07-31T08:20:41;100177.88;;;19.24;67.68
51313;BME280;37397;53.226;10.400;2023-07-31T08:23:07;100169.97;;;19.25;67.87
51313;BME280;37397;53.226;10.400;2023-07-31T08:25:35;100166.72;;;19.28;68.09
51313;BME280;37397;53.226;10.400;2023-07-31T08:28:02;100162.28;;;19.27;68.10
51313;BME280;37397;53.226;10.400;2023-07-31T08:30:29;100157.50;;;19.30;67.88
51313;BME280;37397;53.226;10.400;2023-07-31T08:32:56;100168.75;;;19.34;67.96
51313;BME280;37397;53.226;10.400;2023-07-31T08:35:24;100157.94;;;19.34;67.99
51313;BME280;37397;53.226;10.400;2023-07-31T08:37:51;100155.25;;;19.36;68.13
51313;BME280;37397;53.226;10.400;2023-07-31T08:40:18;100151.03;;;19.37;68.02
51313;BME280;37397;53.226;10.400;2023-07-31T08:42:45;100156.25;;;19.39;67.94
51313;BME280;37397;53.226;10.400;2023-07-31T08:45:14;100156.47;;;19.41;68.20
51313;BME280;37397;53.226;10.400;2023-07-31T08:47:47;100150.69;;;19.41;68.05
51313;BME280;37397;53.226;10.400;2023-07-31T08:50:15;100149.91;;;19.40;67.82
51313;BME280;37397;53.226;10.400;2023-07-31T08:52:42;100158.03;;;19.42;67.89
51313;BME280;37397;53.226;10.400;2023-07-31T08:55:09;100152.66;;;19.46;68.07
51313;BME280;37397;53.226;10.400;2023-07-31T08:57:37;100148.44;;;19.47;68.10
51313;BME280;37397;53.226;10.400;2023-07-31T09:00:06;100154.22;;;19.47;68.05
51313;BME280;37397;53.226;10.400;2023-07-31T09:02:48;100150.78;;;19.48;68.01
51313;BME280;37397;53.226;10.400;2023-07-31T09:05:19;100146.53;;;19.49;67.95
51313;BME280;37397;53.226;10.400;2023-07-31T09:07:47;100145.19;;;19.50;67.98
51313;BME280;37397;53.226;10.400;2023-07-31T09:10:13;100140.19;;;19.51;68.15
51313;BME280;37397;53.226;10.400;2023-07-31T09:12:40;100142.50;;;19.53;67.96
51313;BME280;37397;53.226;10.400;2023-07-31T09:15:08;100134.63;;;19.53;67.96
51313;BME280;37397;53.226;10.400;2023-07-31T09:17:46;100139.06;;;19.54;68.16
51313;BME280;37397;53.226;10.400;2023-07-31T09:20:20;100131.16;;;19.55;67.99
51313;BME280;37397;53.226;10.400;2023-07-31T09:22:48;100129.81;;;19.56;68.13
51313;BME280;37397;53.226;10.400;2023-07-31T09:25:20;100130.81;;;19.58;67.93
51313;BME280;37397;53.226;10.400;2023-07-31T09:27:56;100129.47;;;19.59;68.19
51313;BME280;37397;53.226;10.400;2023-07-31T09:30:24;100133.91;;;19.60;68.42
51313;BME280;37397;53.226;10.400;2023-07-31T09:33:03;100118.13;;;19.61;68.42
51313;BME280;37397;53.226;10.400;2023-07-31T09:35:31;100118.31;;;19.63;68.50
51313;BME280;37397;53.226;10.400;2023-07-31T09:38:00;100120.66;;;19.65;68.40
51313;BME280;37397;53.226;10.400;2023-07-31T09:40:30;100111.97;;;19.65;68.42
51313;BME280;37397;53.226;10.400;2023-07-31T09:43:00;100105.41;;;19.64;68.56
51313;BME280;37397;53.226;10.400;2023-07-31T09:45:27;100113.19;;;19.70;68.45
51313;BME280;37397;53.226;10.400;2023-07-31T09:48:10;100108.94;;;19.71;68.63
51313;BME280;37397;53.226;10.400;2023-07-31T09:50:42;100109.91;;;19.73;68.61
51313;BME280;37397;53.226;10.400;2023-07-31T09:53:09;100107.59;;;19.72;68.76
51313;BME280;37397;53.226;10.400;2023-07-31T09:55:36;100103.56;;;19.75;68.66
51313;BME280;37397;53.226;10.400;2023-07-31T09:58:05;100108.81;;;19.76;68.73
51313;BME280;37397;53.226;10.400;2023-07-31T10:00:32;100105.38;;;19.78;68.49
51313;BME280;37397;53.226;10.400;2023-07-31T10:03:01;100105.56;;;19.80;68.81
51313;BME280;37397;53.226;10.400;2023-07-31T10:05:36;100102.69;;;19.80;68.96
51313;BME280;37397;53.226;10.400;2023-07-31T10:08:04;100108.69;;;19.82;68.85
51313;BME280;37397;53.226;10.400;2023-07-31T10:10:32;100106.56;;;19.82;68.82
51313;BME280;37397;53.226;10.400;2023-07-31T10:12:59;100098.66;;;19.83;68.71
51313;BME280;37397;53.226;10.400;2023-07-31T10:15:27;100099.09;;;19.87;68.64
51313;BME280;37397;53.226;10.400;2023-07-31T10:17:55;100098.53;;;19.89;68.57
51313;BME280;37397;53.226;10.400;2023-07-31T10:20:23;100100.84;;;19.90;68.58
51313;BME280;37397;53.226;10.400;2023-07-31T10:22:51;100098.72;;;19.91;68.99
51313;BME280;37397;53.226;10.400;2023-07-31T10:25:21;100099.72;;;19.93;68.80
51313;BME280;37397;53.226;10.400;2023-07-31T10:27:48;100095.66;;;19.96;68.90
51313;BME280;37397;53.226;10.400;2023-07-31T10:30:17;100098.00;;;19.98;69.10
51313;BME280;37397;53.226;10.400;2023-07-31T10:32:46;100080.06;;;19.99;68.95
51313;BME280;37397;53.226;10.400;2023-07-31T10:35:16;100086.84;;;20.02;69.75
51313;BME280;37397;53.226;10.400;2023-07-31T10:37:43;100095.41;;;20.08;70.81
51313;BME280;37397;53.226;10.400;2023-07-31T10:40:23;100088.06;;;20.07;71.30
51313;BME280;37397;53.226;10.400;2023-07-31T10:42:55;100086.91;;;20.10;71.19
51313;BME280;37397;53.226;10.400;2023-07-31T10:45:35;100082.66;;;20.11;71.25
51313;BME280;37397;53.226;10.400;2023-07-31T10:48:13;100084.59;;;20.08;70.82
51313;BME280;37397;53.226;10.400;2023-07-31T10:50:47;100079.56;;;20.09;70.90
51313;BME280;37397;53.226;10.400;2023-07-31T10:53:33;100073.78;;;20.09;70.77
51313;BME280;37397;53.226;10.400;2023-07-31T10:56:07;100076.31;;;20.12;70.60
51313;BME280;37397;53.226;10.400;2023-07-31T10:58:36;100069.53;;;20.10;70.83
51313;BME280;37397;53.226;10.400;2023-07-31T11:01:04;100078.06;;;20.15;70.65
51313;BME280;37397;53.226;10.400;2023-07-31T11:03:48;100067.41;;;20.10;70.67
51313;BME280;37397;53.226;10.400;2023-07-31T11:06:16;100069.94;;;20.14;70.48
51313;BME280;37397;53.226;10.400;2023-07-31T11:08:49;100067.28;;;20.16;70.42
51313;BME280;37397;53.226;10.400;2023-07-31T11:11:18;100068.03;;;20.16;70.50
51313;BME280;37397;53.226;10.400;2023-07-31T11:13:47;100065.13;;;20.16;70.37
51313;BME280;37397;53.226;10.400;2023-07-31T11:16:17;100064.56;;;20.18;70.38
51313;BME280;37397;53.226;10.400;2023-07-31T11:18:45;100052.22;;;20.17;70.34
51313;BME280;37397;53.226;10.400;2023-07-31T11:21:13;100050.09;;;20.18;70.38
51313;BME280;37397;53.226;10.400;2023-07-31T11:23:40;100048.97;;;20.21;70.14
51313;BME280;37397;53.226;10.400;2023-07-31T11:26:07;100040.25;;;20.21;70.54
51313;BME280;37397;53.226;10.400;2023-07-31T11:28:35;100041.03;;;20.21;70.69
51313;BME280;37397;53.226;10.400;2023-07-31T11:31:02;100050.72;;;20.24;70.48
51313;BME280;37397;53.226;10.400;2023-07-31T11:33:29;100044.34;;;20.26;70.57
51313;BME280;37397;53.226;10.400;2023-07-31T11:35:56;100038.00;;;20.27;70.61
51313;BME280;37397;53.226;10.400;2023-07-31T11:38:25;100032.19;;;20.27;70.91
51313;BME280;37397;53.226;10.400;2023-07-31T11:40:57;100032.41;;;20.29;70.66
51313;BME280;37397;53.226;10.400;2023-07-31T11:43:25;100028.34;;;20.32;70.72
51313;BME280;37397;53.226;10.400;2023-07-31T11:45:54;100016.00;;;20.32;70.60
51313;BME280;37397;53.226;10.400;2023-07-31T11:48:27;100021.19;;;20.33;70.81
51313;BME280;37397;53.226;10.400;2023-07-31T11:50:57;100018.31;;;20.33;70.71
51313;BME280;37397;53.226;10.400;2023-07-31T11:53:31;100025.84;;;20.36;70.67
51313;BME280;37397;53.226;10.400;2023-07-31T11:56:00;100021.06;;;20.39;71.12
51313;BME280;37397;53.226;10.400;2023-07-31T11:58:28;100021.81;;;20.39;70.89
51313;BME280;37397;53.226;10.400;2023-07-31T12:00:56;100016.44;;;20.44;70.69
51313;BME280;37397;53.226;10.400;2023-07-31T12:03:24;100009.66;;;20.41;70.46
51313;BME280;37397;53.226;10.400;2023-07-31T12:05:53;100005.03;;;20.46;70.75
51313;BME280;37397;53.226;10.400;2023-07-31T12:08:24;100019.53;;;20.46;70.76
51313;BME280;37397;53.226;10.400;2023-07-31T12:10:52;100014.16;;;20.50;70.97
51313;BME280;37397;53.226;10.400;2023-07-31T12:13:24;100004.09;;;20.51;70.82
51313;BME280;37397;53.226;10.400;2023-07-31T12:15:57;100009.91;;;20.51;70.98
51313;BME280;37397;53.226;10.400;2023-07-31T12:18:26;100008.56;;;20.52;70.75
51313;BME280;37397;53.226;10.400;2023-07-31T12:21:00;100013.03;;;20.53;70.72
51313;BME280;37397;53.226;10.400;2023-07-31T12:23:28;100020.34;;;20.54;70.83
51313;BME280;37397;53.226;10.400;2023-07-31T12:26:03;99999.47;;;20.55;70.54
51313;BME280;37397;53.226;10.400;2023-07-31T12:28:35;100009.16;;;20.58;70.33
51313;BME280;37397;53.226;10.400;2023-07-31T12:31:01;100006.28;;;20.58;70.74
51313;BME280;37397;53.226;10.400;2023-07-31T12:33:32;99997.00;;;20.59;70.63
51313;BME280;37397;53.226;10.400;2023-07-31T12:36:07;99983.09;;;20.58;70.61
51313;BME280;37397;53.226;10.400;2023-07-31T12:38:33;99987.13;;;20.55;70.67
51313;BME280;37397;53.226;10.400;2023-07-31T12:41:00;99994.53;;;20.64;70.71
51313;BME280;37397;53.226;10.400;2023-07-31T12:43:26;99983.72;;;20.64;70.48
51313;BME280;37397;53.226;10.400;2023-07-31T12:45:56;99991.06;;;20.65;70.55
51313;BME280;37397;53.226;10.400;2023-07-31T12:48:23;99979.69;;;20.67;70.43